Time;durP1;ratioP1;P1;durP2;ratioP2;P2;SDS_P1;SDS_P2;PMS_P1;PMS_P2;Temp;Humidity;BMP_temperature;BMP_pressure;BME280_temperature;BME280_humidity;BME280_pressure;Samples;Min_cycle;Max_cycle;Signal;HPM_P1;HPM_P2
2023/06/08 00:02:23;;;;;;;23.50;7.55;;;13.30;99.90;;;;;;4956171;29;20274;-82
2023/06/08 00:04:52;;;;;;;18.23;8.18;;;13.40;99.90;;;;;;4966563;28;20189;-83
2023/06/08 00:07:19;;;;;;;22.67;7.88;;;13.40;99.90;;;;;;4958020;28;20216;-82
2023/06/08 00:09:45;;;;;;;22.70;8.43;;;13.40;99.90;;;;;;4971014;28;20539;-82
2023/06/08 00:12:11;;;;;;;26.63;8.52;;;13.30;99.90;;;;;;4939068;29;20187;-81
2023/06/08 00:14:38;;;;;;;22.13;8.18;;;13.30;99.90;;;;;;4922889;29;20270;-82
2023/06/08 00:17:04;;;;;;;22.35;7.88;;;13.40;99.90;;;;;;4944202;29;20625;-82
2023/06/08 00:19:31;;;;;;;20.13;8.63;;;13.40;99.90;;;;;;4955884;29;20201;-82
2023/06/08 00:21:59;;;;;;;23.52;8.43;;;13.40;99.90;;;;;;4952725;29;20187;-82
2023/06/08 00:24:25;;;;;;;22.77;8.00;;;13.40;99.90;;;;;;4937975;29;20210;-81
2023/06/08 00:26:51;;;;;;;23.95;8.27;;;13.30;99.90;;;;;;4955575;28;20728;-82
2023/06/08 00:29:17;;;;;;;17.58;7.43;;;13.30;99.90;;;;;;4956013;29;20219;-81
2023/06/08 00:31:43;;;;;;;16.55;8.05;;;13.30;99.90;;;;;;4954405;29;20685;-82
2023/06/08 00:34:09;;;;;;;19.77;7.43;;;13.20;99.90;;;;;;4955698;29;20604;-82
2023/06/08 00:36:37;;;;;;;18.55;7.75;;;13.20;99.90;;;;;;4940831;29;20195;-82
2023/06/08 00:39:04;;;;;;;17.35;7.90;;;13.20;99.90;;;;;;4936652;29;20183;-82
2023/06/08 00:41:30;;;;;;;18.52;7.95;;;13.20;99.90;;;;;;4935374;29;20191;-83
2023/06/08 00:43:56;;;;;;;26.83;8.85;;;13.20;99.90;;;;;;4953499;28;20248;-81
2023/06/08 00:46:25;;;;;;;20.25;8.80;;;13.20;99.90;;;;;;4938296;29;20603;-82
2023/06/08 00:48:53;;;;;;;22.52;9.40;;;13.20;99.90;;;;;;4955637;29;20356;-81
2023/06/08 00:51:21;;;;;;;24.00;10.60;;;13.20;99.90;;;;;;4952901;28;20561;-82
2023/06/08 00:53:47;;;;;;;27.27;10.52;;;13.20;99.90;;;;;;4957874;28;20272;-82
2023/06/08 00:56:17;;;;;;;23.58;10.55;;;13.20;99.90;;;;;;4949422;29;20676;-82
2023/06/08 00:58:46;;;;;;;21.27;10.20;;;13.20;99.90;;;;;;4919453;29;20234;-82
2023/06/08 01:01:17;;;;;;;27.73;11.68;;;13.20;99.90;;;;;;4919487;29;20187;-82
2023/06/08 01:03:45;;;;;;;23.42;12.10;;;13.20;99.90;;;;;;4935618;29;20661;-82
2023/06/08 01:06:12;;;;;;;21.33;10.90;;;13.20;99.90;;;;;;4934960;29;20175;-81
2023/06/08 01:09:11;;;;;;;23.25;10.90;;;13.20;99.90;;;;;;4927392;29;20585;-81
2023/06/08 01:12:01;;;;;;;20.48;10.15;;;13.20;99.90;;;;;;4937892;29;20194;-81
2023/06/08 01:14:38;;;;;;;22.23;10.38;;;13.20;99.90;;;;;;4938400;29;20186;-81
2023/06/08 01:17:09;;;;;;;22.85;11.35;;;13.20;99.90;;;;;;4955401;29;20175;-82
2023/06/08 01:19:54;;;;;;;26.20;9.88;;;13.20;99.90;;;;;;4955370;29;20178;-82
2023/06/08 01:22:27;;;;;;;29.45;11.23;;;13.20;99.90;;;;;;4933874;29;20179;-82
2023/06/08 01:24:56;;;;;;;25.95;10.82;;;13.20;99.90;;;;;;4934549;29;20179;-83
2023/06/08 01:27:25;;;;;;;22.15;9.60;;;13.20;99.90;;;;;;4935336;29;20226;-83
2023/06/08 01:29:51;;;;;;;23.70;9.63;;;13.10;99.90;;;;;;4953336;29;20218;-82
2023/06/08 01:32:19;;;;;;;20.73;10.20;;;13.20;99.90;;;;;;4938260;29;20629;-85
2023/06/08 01:34:45;;;;;;;22.85;10.20;;;13.20;99.90;;;;;;4921282;29;20184;-82
2023/06/08 01:37:33;;;;;;;23.10;10.32;;;13.10;99.90;;;;;;4931918;29;20237;-82
2023/06/08 01:40:09;;;;;;;22.92;10.35;;;13.10;99.90;;;;;;4953849;29;20277;-82
2023/06/08 01:42:36;;;;;;;27.38;11.20;;;13.10;99.90;;;;;;4938247;29;20167;-83
2023/06/08 01:45:22;;;;;;;26.55;10.65;;;13.20;99.90;;;;;;4922266;29;20530;-82
2023/06/08 01:47:50;;;;;;;28.67;11.50;;;13.10;99.90;;;;;;4937216;29;20222;-82
2023/06/08 01:50:17;;;;;;;25.85;11.25;;;13.20;99.90;;;;;;4938015;29;20183;-82
2023/06/08 01:52:43;;;;;;;24.88;11.52;;;13.20;99.90;;;;;;4921865;29;20182;-85
2023/06/08 01:55:20;;;;;;;29.00;11.35;;;13.20;99.90;;;;;;4947673;28;20564;-83
2023/06/08 01:57:47;;;;;;;27.52;10.68;;;13.20;99.90;;;;;;4950671;29;20606;-83
2023/06/08 02:00:17;;;;;;;22.38;9.50;;;13.20;99.90;;;;;;4925903;29;20183;-83
2023/06/08 02:02:44;;;;;;;18.60;9.27;;;13.20;99.90;;;;;;4925588;29;20186;-82
2023/06/08 02:05:13;;;;;;;25.50;10.00;;;13.20;99.90;;;;;;4941502;29;20245;-89
2023/06/08 02:07:40;;;;;;;21.60;10.18;;;13.20;99.90;;;;;;4940499;29;20187;-84
2023/06/08 02:10:10;;;;;;;22.33;10.80;;;13.20;99.90;;;;;;4941148;29;20672;-82
2023/06/08 02:12:37;;;;;;;24.83;10.93;;;13.20;99.90;;;;;;4941275;29;20597;-88
2023/06/08 02:15:03;;;;;;;22.02;10.85;;;13.20;99.90;;;;;;4925509;29;20195;-82
2023/06/08 02:17:36;;;;;;;28.70;11.52;;;13.20;99.90;;;;;;4954690;29;20182;-83
2023/06/08 02:20:06;;;;;;;21.05;10.68;;;13.20;99.90;;;;;;4937723;29;20214;-83
2023/06/08 02:22:33;;;;;;;21.52;11.10;;;13.20;99.90;;;;;;4937759;29;20215;-82
2023/06/08 02:25:00;;;;;;;26.35;11.48;;;13.20;99.90;;;;;;4941350;29;20249;-82
2023/06/08 02:27:27;;;;;;;26.00;11.65;;;13.30;99.90;;;;;;4940652;29;20299;-82
2023/06/08 02:29:54;;;;;;;21.77;10.52;;;13.30;99.90;;;;;;4944047;29;20285;-82
2023/06/08 02:32:20;;;;;;;22.85;10.45;;;13.30;99.90;;;;;;4933529;29;20199;-82
2023/06/08 02:34:53;;;;;;;23.17;9.27;;;13.20;99.90;;;;;;4940685;29;20231;-82
2023/06/08 02:37:20;;;;;;;23.23;9.52;;;13.30;99.90;;;;;;4921695;29;20646;-82
2023/06/08 02:39:46;;;;;;;24.05;9.27;;;13.20;99.90;;;;;;4949008;29;20680;-82
2023/06/08 02:42:13;;;;;;;22.80;9.32;;;13.20;99.90;;;;;;4940801;29;20195;-82
2023/06/08 02:44:40;;;;;;;24.70;9.05;;;13.20;99.90;;;;;;4924993;29;20326;-82
2023/06/08 02:47:06;;;;;;;20.45;9.00;;;13.20;99.90;;;;;;4924476;29;20308;-83
2023/06/08 02:49:32;;;;;;;20.25;8.57;;;13.10;99.90;;;;;;4924247;29;20211;-82
2023/06/08 02:51:58;;;;;;;19.42;9.70;;;13.10;99.90;;;;;;4942526;29;20552;-82
2023/06/08 02:54:23;;;;;;;23.52;10.60;;;13.10;99.90;;;;;;4940453;29;20185;-82
2023/06/08 02:56:49;;;;;;;18.25;10.45;;;13.10;99.90;;;;;;4942643;28;20249;-81
2023/06/08 02:59:16;;;;;;;24.15;10.57;;;13.10;99.90;;;;;;4953205;29;20199;-84
2023/06/08 03:01:52;;;;;;;27.27;11.13;;;13.10;99.90;;;;;;4921864;29;20195;-82
2023/06/08 03:04:21;;;;;;;29.80;11.20;;;13.20;99.90;;;;;;4939950;29;20198;-82
2023/06/08 03:06:53;;;;;;;22.73;9.85;;;13.20;99.90;;;;;;4924739;29;20182;-82
2023/06/08 03:09:25;;;;;;;24.50;10.13;;;13.20;99.90;;;;;;4918339;29;20583;-82
2023/06/08 03:11:52;;;;;;;24.33;11.25;;;13.20;99.90;;;;;;4944174;29;20191;-82
2023/06/08 03:14:20;;;;;;;22.92;11.00;;;13.20;99.90;;;;;;4891132;29;20188;-82
2023/06/08 03:16:47;;;;;;;26.90;10.82;;;13.20;99.90;;;;;;4936899;29;20278;-82
2023/06/08 03:19:14;;;;;;;26.52;12.00;;;13.20;99.90;;;;;;4920945;29;20179;-82
2023/06/08 03:21:43;;;;;;;22.98;10.85;;;13.20;99.90;;;;;;4940868;28;20275;-82
2023/06/08 03:24:10;;;;;;;26.60;10.93;;;13.20;99.90;;;;;;4909674;29;20191;-82
2023/06/08 03:26:39;;;;;;;25.52;10.13;;;13.20;99.90;;;;;;4921896;29;20230;-82
2023/06/08 03:29:07;;;;;;;20.95;9.68;;;13.20;99.90;;;;;;4924378;29;20226;-83
2023/06/08 03:31:37;;;;;;;25.42;8.68;;;13.30;99.90;;;;;;4924014;29;20700;-81
2023/06/08 03:34:05;;;;;;;21.02;7.82;;;13.20;99.90;;;;;;4921450;29;20255;-82
2023/06/08 03:36:34;;;;;;;19.27;8.38;;;13.30;99.90;;;;;;4924541;29;20744;-81
2023/06/08 03:39:04;;;;;;;17.42;8.98;;;13.30;99.90;;;;;;4924049;29;20209;-82
2023/06/08 03:41:31;;;;;;;18.45;8.82;;;13.30;99.90;;;;;;4939722;29;20278;-82
2023/06/08 03:43:58;;;;;;;19.88;7.60;;;13.30;99.90;;;;;;4939711;29;20187;-82
2023/06/08 03:46:26;;;;;;;21.65;8.75;;;13.20;99.90;;;;;;4923608;29;20194;-82
2023/06/08 03:48:53;;;;;;;18.35;7.90;;;13.20;99.90;;;;;;4923566;29;20572;-82
2023/06/08 03:51:23;;;;;;;25.42;8.43;;;13.30;99.90;;;;;;4956950;29;20179;-82
2023/06/08 03:53:52;;;;;;;26.42;8.52;;;13.30;99.90;;;;;;4939662;29;20217;-81
2023/06/08 03:56:20;;;;;;;19.10;8.18;;;13.20;99.90;;;;;;4924382;29;20187;-82
2023/06/08 03:58:46;;;;;;;19.63;7.15;;;13.30;99.90;;;;;;4939322;29;20190;-83
2023/06/08 04:01:12;;;;;;;18.88;7.22;;;13.30;99.90;;;;;;4939350;29;20186;-83
2023/06/08 04:03:39;;;;;;;18.88;7.72;;;13.30;99.90;;;;;;4939260;29;20546;-83
2023/06/08 04:06:08;;;;;;;22.75;8.63;;;13.30;99.90;;;;;;4926367;28;20280;-83
2023/06/08 04:08:39;;;;;;;21.77;8.43;;;13.30;99.90;;;;;;4974607;28;20264;-82
2023/06/08 04:11:07;;;;;;;23.35;8.98;;;13.30;99.90;;;;;;4969082;28;20194;-83
2023/06/08 04:13:36;;;;;;;28.95;9.35;;;13.30;99.90;;;;;;4939233;29;20237;-82
2023/06/08 04:16:08;;;;;;;27.75;8.50;;;13.30;99.90;;;;;;4939192;29;20281;-83
2023/06/08 04:18:41;;;;;;;22.58;7.80;;;13.30;99.90;;;;;;4938500;29;20187;-83
2023/06/08 04:21:09;;;;;;;20.90;7.63;;;13.30;99.90;;;;;;4938937;29;20264;-83
2023/06/08 04:23:36;;;;;;;24.30;8.20;;;13.30;99.90;;;;;;4923286;29;20206;-83
2023/06/08 04:26:06;;;;;;;28.60;8.45;;;13.30;99.90;;;;;;4923445;29;20669;-84
2023/06/08 04:28:33;;;;;;;21.83;8.07;;;13.30;99.90;;;;;;4954724;29;20265;-83
2023/06/08 04:30:59;;;;;;;28.65;9.15;;;13.30;99.90;;;;;;4922589;29;20190;-83
2023/06/08 04:33:27;;;;;;;18.50;8.00;;;13.40;99.90;;;;;;4938730;29;20261;-83
2023/06/08 04:35:53;;;;;;;18.70;8.27;;;13.40;99.90;;;;;;4955808;29;20238;-83
2023/06/08 04:38:20;;;;;;;32.40;9.00;;;13.40;99.90;;;;;;4942720;29;20182;-83
2023/06/08 04:40:53;;;;;;;16.17;8.20;;;13.40;99.90;;;;;;4907221;29;20283;-83
2023/06/08 04:43:22;;;;;;;31.42;8.57;;;13.40;99.90;;;;;;4923168;29;20277;-81
2023/06/08 04:45:57;;;;;;;19.52;8.02;;;13.40;99.90;;;;;;4938381;29;20179;-82
2023/06/08 04:48:35;;;;;;;18.15;7.40;;;13.50;99.90;;;;;;4939314;29;20706;-84
2023/06/08 04:51:04;;;;;;;17.17;7.60;;;13.50;99.90;;;;;;4906717;29;20245;-83
2023/06/08 04:53:34;;;;;;;24.83;8.10;;;13.50;99.90;;;;;;4955349;29;20241;-83
2023/06/08 04:56:02;;;;;;;18.20;7.78;;;13.50;99.90;;;;;;4919465;29;20219;-86
2023/06/08 04:58:29;;;;;;;22.83;8.35;;;13.50;99.90;;;;;;4937598;29;20187;-82
2023/06/08 05:00:56;;;;;;;20.67;8.60;;;13.60;99.90;;;;;;4908271;29;20238;-82
2023/06/08 05:03:23;;;;;;;20.20;8.13;;;13.60;99.90;;;;;;4918611;29;20188;-82
2023/06/08 05:05:50;;;;;;;21.75;8.32;;;13.60;99.90;;;;;;4906184;29;20660;-83
2023/06/08 05:08:16;;;;;;;23.10;8.18;;;13.60;99.90;;;;;;4919058;29;20222;-81
2023/06/08 05:10:42;;;;;;;23.05;8.32;;;13.60;99.90;;;;;;4945832;29;20226;-82
2023/06/08 05:13:08;;;;;;;25.00;8.02;;;13.60;99.90;;;;;;4922309;29;20213;-83
2023/06/08 05:15:34;;;;;;;21.17;7.85;;;13.60;99.90;;;;;;4953581;29;20665;-84
2023/06/08 05:18:00;;;;;;;16.13;7.15;;;13.70;99.90;;;;;;4931765;29;20199;-84
2023/06/08 05:20:28;;;;;;;20.80;7.50;;;13.70;99.90;;;;;;4935863;29;20226;-82
2023/06/08 05:22:54;;;;;;;26.42;7.85;;;13.70;99.90;;;;;;4953323;29;20190;-83
2023/06/08 05:25:19;;;;;;;17.45;7.20;;;13.70;99.90;;;;;;4936296;29;20660;-82
2023/06/08 05:27:45;;;;;;;19.95;7.57;;;13.80;99.90;;;;;;4937652;29;20724;-83
2023/06/08 05:30:11;;;;;;;18.40;7.57;;;13.80;99.90;;;;;;4938909;29;20218;-83
2023/06/08 05:32:37;;;;;;;17.02;7.28;;;13.80;99.90;;;;;;4908908;29;20187;-83
2023/06/08 05:35:03;;;;;;;19.40;7.07;;;13.80;99.90;;;;;;4955043;29;20185;-82
2023/06/08 05:37:30;;;;;;;26.73;7.85;;;13.90;99.90;;;;;;4953619;29;20765;-83
2023/06/08 05:39:56;;;;;;;18.30;7.53;;;13.90;99.90;;;;;;4934522;29;20223;-84
2023/06/08 05:42:22;;;;;;;22.98;8.00;;;14.00;99.90;;;;;;4939780;29;20183;-84
2023/06/08 05:44:49;;;;;;;16.38;6.80;;;14.00;99.90;;;;;;4941446;29;20217;-82
2023/06/08 05:47:15;;;;;;;22.27;7.57;;;14.00;99.90;;;;;;4957775;29;20186;-82
2023/06/08 05:49:41;;;;;;;22.85;7.60;;;14.10;99.90;;;;;;4941355;29;20210;-84
2023/06/08 05:52:07;;;;;;;16.00;7.40;;;14.10;99.90;;;;;;4926513;29;20191;-83
2023/06/08 05:54:33;;;;;;;21.15;7.60;;;14.10;99.90;;;;;;4950593;28;20648;-82
2023/06/08 05:56:59;;;;;;;21.55;7.57;;;14.10;99.90;;;;;;4940828;29;20201;-82
2023/06/08 05:59:24;;;;;;;20.88;7.43;;;14.20;99.90;;;;;;4941586;29;20190;-83
2023/06/08 06:01:50;;;;;;;21.30;8.15;;;14.20;99.90;;;;;;4941484;29;20551;-84
2023/06/08 06:04:17;;;;;;;17.30;7.13;;;14.30;99.90;;;;;;4972834;28;20185;-91
2023/06/08 06:06:43;;;;;;;18.75;7.38;;;14.30;99.90;;;;;;4928755;29;20646;-84
2023/06/08 06:09:11;;;;;;;16.27;7.00;;;14.30;99.90;;;;;;4941155;29;20241;-82
2023/06/08 06:11:37;;;;;;;25.90;7.35;;;14.30;99.90;;;;;;4958036;29;20266;-84
2023/06/08 06:14:02;;;;;;;18.42;7.40;;;14.30;99.90;;;;;;4950837;29;20820;-85
2023/06/08 06:16:28;;;;;;;15.85;6.47;;;14.40;99.90;;;;;;4922387;29;20190;-84
2023/06/08 06:18:54;;;;;;;16.77;6.88;;;14.40;99.90;;;;;;4957729;29;20554;-83
2023/06/08 06:21:20;;;;;;;22.80;7.15;;;14.50;99.90;;;;;;4915575;29;20210;-84
2023/06/08 06:23:46;;;;;;;24.83;7.53;;;14.50;99.90;;;;;;4937731;29;20273;-84
2023/06/08 06:26:12;;;;;;;24.45;7.82;;;14.60;99.90;;;;;;4924551;29;20737;-84
2023/06/08 06:28:39;;;;;;;17.95;7.45;;;14.70;99.90;;;;;;4927700;28;20210;-85
2023/06/08 06:31:06;;;;;;;22.50;7.05;;;14.70;99.90;;;;;;4950158;29;20289;-83
2023/06/08 06:33:31;;;;;;;16.23;6.35;;;14.80;99.90;;;;;;4940886;28;20190;-84
2023/06/08 06:35:57;;;;;;;17.55;6.80;;;14.80;99.90;;;;;;4958019;29;20213;-83
2023/06/08 06:38:24;;;;;;;19.42;7.15;;;14.90;99.90;;;;;;4955619;29;20218;-84
2023/06/08 06:40:52;;;;;;;19.25;6.80;;;14.90;99.90;;;;;;4957020;29;20191;-85
2023/06/08 06:43:21;;;;;;;18.63;6.47;;;15.00;99.90;;;;;;4939968;29;20194;-84
2023/06/08 06:45:52;;;;;;;16.20;6.00;;;15.00;99.90;;;;;;4948528;28;20253;-85
2023/06/08 06:48:22;;;;;;;21.33;6.55;;;15.10;99.90;;;;;;4938291;29;20215;-86
2023/06/08 06:50:47;;;;;;;21.13;6.00;;;15.10;99.90;;;;;;4938564;29;20238;-86
2023/06/08 06:53:13;;;;;;;21.15;6.35;;;15.20;99.90;;;;;;4921654;29;20180;-86
2023/06/08 06:55:42;;;;;;;14.43;6.25;;;15.20;99.90;;;;;;4954802;29;20179;-84
2023/06/08 06:58:08;;;;;;;19.02;6.13;;;15.30;99.90;;;;;;4943169;29;20225;-86
2023/06/08 07:00:37;;;;;;;14.98;5.78;;;15.30;99.90;;;;;;4955850;29;20649;-84
2023/06/08 07:03:07;;;;;;;17.42;5.95;;;15.40;99.90;;;;;;4940078;29;20210;-86
2023/06/08 07:05:34;;;;;;;20.38;6.40;;;15.40;99.90;;;;;;4940099;29;20182;-85
2023/06/08 07:08:01;;;;;;;19.55;6.30;;;15.50;99.90;;;;;;4937051;28;20217;-85
2023/06/08 07:10:27;;;;;;;13.15;5.40;;;15.60;99.90;;;;;;4959276;28;20178;-85
2023/06/08 07:12:53;;;;;;;20.63;5.70;;;15.70;99.90;;;;;;4959156;28;20220;-85
2023/06/08 07:15:19;;;;;;;17.02;6.20;;;15.70;99.90;;;;;;4956848;28;20214;-85
2023/06/08 07:17:46;;;;;;;22.13;5.93;;;15.80;99.90;;;;;;4956853;29;20186;-85
2023/06/08 07:20:13;;;;;;;20.67;5.95;;;15.90;99.90;;;;;;4955807;29;20202;-84
2023/06/08 07:22:38;;;;;;;21.52;5.75;;;16.00;99.90;;;;;;4937566;29;20194;-84
2023/06/08 07:25:05;;;;;;;17.80;5.47;;;16.10;99.90;;;;;;4939480;29;20182;-84
2023/06/08 07:27:31;;;;;;;18.65;5.82;;;16.20;99.90;;;;;;4964848;28;20233;-84
2023/06/08 07:29:57;;;;;;;20.58;5.50;;;16.20;99.90;;;;;;4958670;28;20202;-83
2023/06/08 07:32:23;;;;;;;13.57;4.93;;;16.30;99.90;;;;;;4970360;28;20531;-83
2023/06/08 07:34:50;;;;;;;15.55;5.97;;;16.40;99.90;;;;;;4955863;29;20194;-83
2023/06/08 07:37:15;;;;;;;17.23;5.32;;;16.50;99.90;;;;;;4905842;29;20182;-83
2023/06/08 07:39:41;;;;;;;15.52;5.55;;;16.60;99.90;;;;;;4938118;29;20688;-84
2023/06/08 07:42:07;;;;;;;15.98;5.32;;;16.60;99.90;;;;;;4937236;29;20664;-83
2023/06/08 07:44:34;;;;;;;19.30;6.07;;;16.70;99.90;;;;;;4955315;29;20193;-84
2023/06/08 07:47:00;;;;;;;18.63;5.50;;;16.80;99.90;;;;;;4937777;29;20269;-84
2023/06/08 07:49:28;;;;;;;17.65;6.00;;;16.80;99.90;;;;;;4937288;29;20226;-83
2023/06/08 07:51:54;;;;;;;20.90;5.68;;;17.00;99.90;;;;;;4953162;29;20183;-84
2023/06/08 07:54:22;;;;;;;16.67;5.60;;;17.00;99.90;;;;;;4921332;29;20202;-83
2023/06/08 07:56:49;;;;;;;12.00;5.15;;;17.10;99.90;;;;;;4954953;29;20183;-84
2023/06/08 07:59:15;;;;;;;17.58;6.45;;;17.20;99.90;;;;;;4937483;29;20194;-84
2023/06/08 08:01:42;;;;;;;20.42;5.80;;;17.30;99.90;;;;;;4922116;29;20241;-83
2023/06/08 08:04:09;;;;;;;20.88;6.80;;;17.40;99.90;;;;;;4937788;29;20171;-83
2023/06/08 08:06:35;;;;;;;15.90;5.75;;;17.50;99.90;;;;;;4955337;29;20179;-84
2023/06/08 08:09:02;;;;;;;20.65;6.15;;;17.60;99.90;;;;;;4921468;29;20233;-84
2023/06/08 08:11:28;;;;;;;16.50;5.85;;;17.70;99.90;;;;;;4943209;29;20199;-84
2023/06/08 08:13:55;;;;;;;17.90;5.15;;;17.70;99.90;;;;;;4955468;29;20519;-84
2023/06/08 08:16:21;;;;;;;16.33;5.90;;;17.80;99.90;;;;;;4938072;29;20226;-83
2023/06/08 08:18:46;;;;;;;16.30;6.07;;;17.90;99.90;;;;;;4938020;29;20651;-84
2023/06/08 08:21:12;;;;;;;15.68;5.80;;;17.90;99.90;;;;;;4956923;28;20182;-84
2023/06/08 08:23:39;;;;;;;25.73;6.20;;;18.00;99.90;;;;;;4941650;28;20628;-84
2023/06/08 08:26:10;;;;;;;16.60;5.72;;;18.10;99.90;;;;;;5112376;27;1304847;-85
2023/06/08 08:28:41;;;;;;;20.25;5.80;;;18.20;99.90;;;;;;5115350;28;20180;-84
2023/06/08 08:31:06;;;;;;;14.98;6.07;;;18.20;99.90;;;;;;5129077;28;20173;-84
2023/06/08 08:33:32;;;;;;;18.60;6.28;;;18.40;99.90;;;;;;5130589;27;20543;-82
2023/06/08 08:35:58;;;;;;;14.55;5.70;;;18.40;99.90;;;;;;5130434;28;20487;-83
2023/06/08 08:38:25;;;;;;;20.10;5.40;;;18.50;99.90;;;;;;5111055;28;20203;-84
2023/06/08 08:40:52;;;;;;;17.45;5.30;;;18.60;99.90;;;;;;5108537;27;20189;-83
2023/06/08 08:43:44;;;;;;;13.27;5.40;;;18.70;99.90;;;;;;5091693;28;20578;-83
2023/06/08 08:46:11;;;;;;;18.17;5.22;;;18.70;99.90;;;;;;5073001;28;20197;-83
2023/06/08 08:48:44;;;;;;;14.52;5.03;;;18.90;99.90;;;;;;5127179;28;20299;-83
2023/06/08 08:51:18;;;;;;;14.40;4.85;;;18.90;99.90;;;;;;5127092;28;20185;-83
2023/06/08 08:53:48;;;;;;;20.70;5.05;;;19.00;99.90;;;;;;5128580;28;20161;-84
2023/06/08 08:56:20;;;;;;;15.95;5.70;;;19.00;99.90;;;;;;5128642;28;20192;-82
2023/06/08 08:58:48;;;;;;;17.60;5.65;;;19.10;99.90;;;;;;5129718;27;20161;-82
2023/06/08 09:01:14;;;;;;;14.88;5.28;;;19.20;99.90;;;;;;5123178;27;20246;-82
2023/06/08 09:03:40;;;;;;;18.05;5.80;;;19.30;99.90;;;;;;5108007;28;20227;-83
2023/06/08 09:06:06;;;;;;;19.73;5.45;;;19.40;99.90;;;;;;5090925;28;20225;-84
2023/06/08 09:08:33;;;;;;;11.55;5.53;;;19.40;99.90;;;;;;5114010;27;20189;-85
2023/06/08 09:11:07;;;;;;;13.63;5.13;;;19.40;99.90;;;;;;5127127;28;20181;-83
2023/06/08 09:13:34;;;;;;;19.38;5.70;;;19.50;99.90;;;;;;5129561;27;20161;-83
2023/06/08 09:16:22;;;;;;;12.90;5.32;;;19.60;99.90;;;;;;5127656;28;20184;-84
2023/06/08 09:19:04;;;;;;;15.65;5.00;;;19.60;99.90;;;;;;5109781;27;20533;-84
2023/06/08 09:21:30;;;;;;;16.30;5.32;;;19.70;99.90;;;;;;5127251;28;20168;-83
2023/06/08 09:24:14;;;;;;;14.95;5.45;;;19.80;99.90;;;;;;5127657;28;20596;-83
2023/06/08 09:26:59;;;;;;;14.55;5.10;;;19.90;99.90;;;;;;5126983;28;20743;-84
2023/06/08 09:29:37;;;;;;;15.75;5.68;;;19.90;99.90;;;;;;5122982;28;20173;-83
2023/06/08 09:32:04;;;;;;;15.85;5.25;;;20.00;99.90;;;;;;5126649;28;20205;-84
2023/06/08 09:34:33;;;;;;;17.40;4.90;;;20.00;99.90;;;;;;5122259;27;20204;-83
2023/06/08 09:37:07;;;;;;;15.73;5.10;;;20.10;99.90;;;;;;5114310;28;20597;-83
2023/06/08 09:39:40;;;;;;;13.30;4.80;;;20.10;99.90;;;;;;5115085;28;20246;-84
2023/06/08 09:42:06;;;;;;;17.98;4.75;;;20.30;99.90;;;;;;5113233;28;20181;-83
2023/06/08 09:44:32;;;;;;;15.15;5.10;;;20.30;99.90;;;;;;5099143;28;20200;-83
2023/06/08 09:46:58;;;;;;;16.60;4.60;;;20.40;99.90;;;;;;5093321;28;20178;-83
2023/06/08 09:49:24;;;;;;;13.85;4.75;;;20.50;99.90;;;;;;5076273;28;20209;-84
2023/06/08 09:51:51;;;;;;;17.75;5.07;;;20.60;99.90;;;;;;5092678;28;20610;-83
2023/06/08 09:54:19;;;;;;;13.95;4.68;;;20.60;99.90;;;;;;5108022;27;20212;-84
2023/06/08 09:56:53;;;;;;;14.75;4.85;;;20.60;99.90;;;;;;5096395;28;20182;-83
2023/06/08 09:59:26;;;;;;;14.73;5.20;;;20.70;99.90;;;;;;5114651;28;20203;-83
2023/06/08 10:02:00;;;;;;;13.45;5.07;;;20.80;99.90;;;;;;5113447;28;20166;-84
2023/06/08 10:04:36;;;;;;;13.00;5.03;;;20.90;99.90;;;;;;5111866;28;20219;-84
2023/06/08 10:07:15;;;;;;;15.30;4.95;;;21.00;99.90;;;;;;5096207;28;20177;-84
2023/06/08 10:09:48;;;;;;;14.38;4.95;;;21.00;99.90;;;;;;5106964;28;20234;-84
2023/06/08 10:12:13;;;;;;;14.40;4.80;;;21.00;99.90;;;;;;5092565;28;20178;-83
2023/06/08 10:14:40;;;;;;;13.70;4.60;;;21.00;99.90;;;;;;5092847;28;20269;-83
2023/06/08 10:17:06;;;;;;;13.88;4.60;;;21.00;99.90;;;;;;5112807;28;20242;-83
2023/06/08 10:19:35;;;;;;;11.88;4.70;;;21.00;99.90;;;;;;5112579;28;20182;-84
2023/06/08 10:22:02;;;;;;;15.10;5.15;;;21.10;99.90;;;;;;5095370;28;20239;-84
2023/06/08 10:24:32;;;;;;;14.50;4.30;;;21.20;99.90;;;;;;5112770;28;20213;-84
2023/06/08 10:27:29;;;;;;;12.90;4.57;;;21.20;99.80;;;;;;5104439;28;20398;-84
2023/06/08 10:29:59;;;;;;;14.77;4.82;;;21.20;99.70;;;;;;5112895;28;20188;-84
2023/06/08 10:32:31;;;;;;;15.88;5.10;;;21.30;99.60;;;;;;5078794;28;20196;-84
2023/06/08 10:34:58;;;;;;;15.35;5.20;;;21.40;99.40;;;;;;5075120;28;20519;-84
2023/06/08 10:37:30;;;;;;;14.05;4.68;;;21.40;99.00;;;;;;5092355;28;20193;-84
2023/06/08 10:40:06;;;;;;;12.60;4.90;;;21.50;98.60;;;;;;5093261;28;20166;-84
2023/06/08 10:42:32;;;;;;;11.27;4.50;;;21.50;98.40;;;;;;5075272;28;20516;-85
2023/06/08 10:45:00;;;;;;;11.25;4.20;;;21.50;98.00;;;;;;5090669;28;20213;-84
2023/06/08 10:47:28;;;;;;;13.63;4.68;;;21.50;97.80;;;;;;5110225;28;20177;-85
2023/06/08 10:49:57;;;;;;;15.60;4.88;;;21.50;97.80;;;;;;5095113;28;20227;-84
2023/06/08 10:52:24;;;;;;;14.45;4.45;;;21.50;97.90;;;;;;5112203;28;20180;-85
2023/06/08 10:55:06;;;;;;;12.13;4.97;;;21.50;97.70;;;;;;5112630;28;20184;-84
2023/06/08 10:57:42;;;;;;;15.25;5.40;;;21.60;97.60;;;;;;5107375;28;20252;-84
2023/06/08 11:00:27;;;;;;;11.50;4.72;;;21.60;97.30;;;;;;5094375;28;20177;-83
2023/06/08 11:03:16;;;;;;;14.57;4.82;;;21.60;97.30;;;;;;5112824;28;20179;-85
2023/06/08 11:05:44;;;;;;;13.45;4.80;;;21.60;97.10;;;;;;5095466;28;20205;-83
2023/06/08 11:08:11;;;;;;;10.48;4.88;;;21.60;96.90;;;;;;5107628;28;20186;-84
2023/06/08 11:10:41;;;;;;;10.75;4.63;;;21.70;96.80;;;;;;5092569;28;20315;-84
2023/06/08 11:13:09;;;;;;;13.35;4.75;;;21.70;96.70;;;;;;5074698;28;20226;-83
2023/06/08 11:15:36;;;;;;;13.00;5.32;;;21.70;96.40;;;;;;5093690;28;20736;-84
2023/06/08 11:18:07;;;;;;;11.43;5.05;;;21.70;96.10;;;;;;5103095;28;20717;-84
2023/06/08 11:20:33;;;;;;;13.23;5.57;;;21.80;95.90;;;;;;5076131;28;20404;-84
2023/06/08 11:23:00;;;;;;;13.45;5.22;;;21.80;95.70;;;;;;5091005;28;20700;-84
2023/06/08 11:25:27;;;;;;;13.70;5.70;;;21.90;95.70;;;;;;5111627;28;20239;-84
2023/06/08 11:27:55;;;;;;;13.57;6.43;;;21.90;95.60;;;;;;5078462;28;20185;-83
2023/06/08 11:30:22;;;;;;;13.88;5.95;;;21.80;95.50;;;;;;5085570;28;20257;-83
2023/06/08 11:32:50;;;;;;;13.65;5.57;;;21.90;95.50;;;;;;5091368;28;20215;-84
2023/06/08 11:35:21;;;;;;;15.48;5.90;;;21.90;95.50;;;;;;5091764;28;20200;-84
2023/06/08 11:38:05;;;;;;;12.05;5.28;;;21.90;95.40;;;;;;5092363;28;20182;-84
2023/06/08 11:40:32;;;;;;;13.80;4.72;;;21.90;95.10;;;;;;5091998;28;20338;-84
2023/06/08 11:43:00;;;;;;;10.55;4.70;;;21.90;95.00;;;;;;5091478;28;20257;-84
2023/06/08 11:45:26;;;;;;;15.65;5.32;;;21.90;95.20;;;;;;5112128;28;20211;-84
2023/06/08 11:47:53;;;;;;;12.60;4.72;;;21.90;94.40;;;;;;5094609;28;20177;-84
2023/06/08 11:50:19;;;;;;;13.32;4.85;;;21.90;94.50;;;;;;5112984;28;20654;-84
2023/06/08 11:52:47;;;;;;;14.20;4.90;;;21.90;94.60;;;;;;5088667;28;20265;-84
2023/06/08 11:55:15;;;;;;;10.23;4.25;;;21.90;94.60;;;;;;5091262;28;20182;-84
2023/06/08 11:58:00;;;;;;;10.75;3.83;;;22.00;94.60;;;;;;5108880;28;20184;-84
2023/06/08 12:00:28;;;;;;;12.85;4.63;;;22.00;94.60;;;;;;5112030;28;20278;-85
2023/06/08 12:02:55;;;;;;;14.02;4.72;;;22.10;94.70;;;;;;5109197;28;20169;-85
2023/06/08 12:05:31;;;;;;;13.02;4.68;;;22.10;94.70;;;;;;5110419;28;20265;-84
2023/06/08 12:08:01;;;;;;;11.30;3.78;;;22.20;94.60;;;;;;5110550;28;20185;-85
2023/06/08 12:10:36;;;;;;;12.25;4.00;;;22.20;94.30;;;;;;5104700;28;20528;-84
2023/06/08 12:13:08;;;;;;;12.18;4.03;;;22.20;94.30;;;;;;5100385;28;20674;-84
2023/06/08 12:15:46;;;;;;;13.65;4.00;;;22.20;94.10;;;;;;5092706;28;20260;-84
2023/06/08 12:18:16;;;;;;;9.40;4.63;;;22.20;94.20;;;;;;5111630;28;20184;-84
2023/06/08 12:20:44;;;;;;;12.75;4.35;;;22.20;93.80;;;;;;5094010;28;20183;-84
2023/06/08 12:23:12;;;;;;;15.32;4.53;;;22.20;94.00;;;;;;5110141;28;20181;-82
2023/06/08 12:25:41;;;;;;;15.27;4.40;;;22.20;94.10;;;;;;5105130;28;20263;-83
2023/06/08 12:28:22;;;;;;;8.98;3.97;;;22.20;94.10;;;;;;5091150;28;20208;-83
2023/06/08 12:30:48;;;;;;;10.82;4.07;;;22.20;94.00;;;;;;5110244;28;20166;-83
2023/06/08 12:33:18;;;;;;;10.95;3.88;;;22.20;94.00;;;;;;5091385;28;20174;-83
2023/06/08 12:35:45;;;;;;;9.55;4.03;;;22.20;93.90;;;;;;5094510;28;20192;-84
2023/06/08 12:38:11;;;;;;;10.50;4.05;;;22.20;94.00;;;;;;5088758;28;20180;-83
2023/06/08 12:40:37;;;;;;;12.80;4.00;;;22.30;94.00;;;;;;5090337;28;20170;-83
2023/06/08 12:43:03;;;;;;;10.05;3.40;;;22.20;94.10;;;;;;5091285;28;20189;-83
2023/06/08 12:45:29;;;;;;;10.75;3.65;;;22.20;93.80;;;;;;5092644;28;20201;-84